createdAt,value
2023-04-03T00:02:42.080Z,101211.31
2023-04-03T00:06:44.382Z,101208.97
2023-04-03T00:10:46.727Z,101209.88
2023-04-03T00:14:48.834Z,101222.84
2023-04-03T00:18:50.950Z,101215.25
2023-04-03T00:22:57.235Z,101217.03
2023-04-03T00:26:59.251Z,101213.63
2023-04-03T00:31:07.484Z,101220.50
2023-04-03T00:35:10.728Z,101224.09
2023-04-03T00:39:13.463Z,101219.84
2023-04-03T00:43:24.535Z,101219.03
2023-04-03T00:47:27.168Z,101223.44
2023-04-03T00:51:29.438Z,101213.94
2023-04-03T00:55:32.697Z,101217.41
2023-04-03T00:59:39.673Z,101221.75
2023-04-03T01:03:41.809Z,101233.91
2023-04-03T01:07:45.591Z,101238.25
2023-04-03T01:11:48.331Z,101241.72
2023-04-03T01:15:50.885Z,101248.63
2023-04-03T01:20:17.014Z,101250.41
2023-04-03T01:24:39.531Z,101270.19
2023-04-03T01:28:44.163Z,101259.03
2023-04-03T01:32:46.315Z,101265.13
2023-04-03T01:36:49.105Z,101273.72
2023-04-03T01:40:51.603Z,101281.50
2023-04-03T01:44:53.841Z,101291.00
2023-04-03T01:48:56.098Z,101297.06
2023-04-03T01:52:58.585Z,101287.63
2023-04-03T01:57:00.958Z,101297.13
2023-04-03T02:01:04.075Z,101303.16
2023-04-03T02:05:07.328Z,101300.63
2023-04-03T02:09:09.598Z,101300.63
2023-04-03T02:13:12.141Z,101301.50
2023-04-03T02:17:14.504Z,101308.38
2023-04-03T02:21:16.600Z,101305.81
2023-04-03T02:25:19.357Z,101304.97
2023-04-03T02:29:21.840Z,101302.41
2023-04-03T02:33:24.020Z,101304.13
2023-04-03T02:37:26.612Z,101314.47
2023-04-03T02:41:35.864Z,101319.63
2023-04-03T02:45:40.822Z,101309.28
2023-04-03T02:49:46.068Z,101315.34
2023-04-03T02:53:48.185Z,101323.09
2023-04-03T02:57:55.049Z,101327.38
2023-04-03T03:01:57.728Z,101320.53
2023-04-03T03:06:04.971Z,101321.38
2023-04-03T03:10:07.368Z,101318.81
2023-04-03T03:14:10.679Z,101317.97
2023-04-03T03:18:12.817Z,101328.28
2023-04-03T03:22:15.226Z,101326.56
2023-04-03T03:26:17.425Z,101325.69
2023-04-03T03:30:19.555Z,101336.03
2023-04-03T03:34:22.035Z,101341.19
2023-04-03T03:38:24.451Z,101332.56
2023-04-03T03:42:27.193Z,101332.56
2023-04-03T03:46:29.646Z,101330.84
2023-04-03T03:50:31.828Z,101335.16
2023-04-03T03:54:34.203Z,101336.84
2023-04-03T03:58:37.103Z,101350.66
2023-04-03T04:02:39.890Z,101343.75
2023-04-03T04:06:42.308Z,101353.19
2023-04-03T04:10:46.323Z,101354.06
2023-04-03T04:14:50.744Z,101354.03
2023-04-03T04:18:53.100Z,101372.09
2023-04-03T04:22:56.263Z,101369.53
2023-04-03T04:26:59.339Z,101375.53
2023-04-03T04:31:01.742Z,101379.00
2023-04-03T04:35:06.030Z,101379.00
2023-04-03T04:39:10.800Z,101381.56
2023-04-03T04:43:15.567Z,101383.28
2023-04-03T04:47:19.697Z,101399.63
2023-04-03T04:51:22.057Z,101396.19
2023-04-03T04:55:24.325Z,101399.63
2023-04-03T04:59:26.664Z,101409.97
2023-04-03T05:03:31.582Z,101404.78
2023-04-03T05:07:34.512Z,101408.25
2023-04-03T05:11:37.681Z,101417.72
2023-04-03T05:15:42.137Z,101414.31
2023-04-03T05:19:44.460Z,101422.06
2023-04-03T05:23:47.916Z,101422.94
2023-04-03T05:27:51.010Z,101422.94
2023-04-03T05:31:53.534Z,101426.41
2023-04-03T05:35:55.995Z,101437.59
2023-04-03T05:40:04.119Z,101437.59
2023-04-03T05:44:06.898Z,101441.91
2023-04-03T05:48:09.450Z,101441.88
2023-04-03T05:52:23.728Z,101438.44
2023-04-03T05:56:27.362Z,101447.91
2023-04-03T06:00:29.900Z,101453.94
2023-04-03T06:04:37.523Z,101451.34
2023-04-03T06:08:40.441Z,101447.91
2023-04-03T06:12:42.856Z,101451.34
2023-04-03T06:16:45.885Z,101462.53
2023-04-03T06:20:48.270Z,101457.34
2023-04-03T06:24:50.352Z,101465.97
2023-04-03T06:28:55.344Z,101471.13
2023-04-03T06:32:57.726Z,101473.69
2023-04-03T06:43:34.578Z,101478.81
2023-04-03T06:47:37.066Z,101477.88
2023-04-03T06:51:39.446Z,101475.34
2023-04-03T06:55:42.515Z,101489.19
2023-04-03T06:59:44.664Z,101493.41
2023-04-03T07:03:47.505Z,101488.19
2023-04-03T07:07:50.854Z,101497.69
2023-04-03T07:11:52.907Z,101499.41
2023-04-03T07:15:55.455Z,101504.53
2023-04-03T07:19:57.711Z,101511.31
2023-04-03T07:23:59.885Z,101514.00
2023-04-03T07:28:02.025Z,101511.44
2023-04-03T07:32:04.651Z,101517.28
2023-04-03T07:36:10.529Z,101517.16
2023-04-03T07:40:12.910Z,101515.44
2023-04-03T07:44:14.944Z,101523.06
2023-04-03T07:48:18.679Z,101525.41
2023-04-03T07:52:20.730Z,101522.00
2023-04-03T07:56:23.818Z,101522.78
2023-04-03T08:00:26.019Z,101518.19
2023-04-03T08:04:28.294Z,101522.59
2023-04-03T08:08:31.387Z,101529.88
2023-04-03T08:12:33.712Z,101522.69
2023-04-03T08:16:35.808Z,101527.09
2023-04-03T08:20:39.722Z,101521.91
2023-04-03T08:24:52.382Z,101521.25
2023-04-03T08:29:00.485Z,101536.81
2023-04-03T08:33:03.432Z,101538.06
2023-04-03T08:37:06.321Z,101531.84
2023-04-03T08:41:24.366Z,101544.97
2023-04-03T08:45:44.581Z,101529.97
2023-04-03T08:49:52.641Z,101545.50
2023-04-03T08:54:01.799Z,101544.34
2023-04-03T08:58:30.485Z,101542.59
2023-04-03T09:02:42.737Z,101531.66
2023-04-03T09:06:50.882Z,101541.63
2023-04-03T09:11:22.997Z,101540.34
2023-04-03T09:15:37.788Z,101544.59
2023-04-03T09:20:09.861Z,101531.59
2023-04-03T09:24:14.691Z,101544.13
2023-04-03T09:28:16.780Z,101535.47
2023-04-03T09:32:33.634Z,101542.00
2023-04-03T09:36:39.764Z,101543.97
2023-04-03T09:40:41.718Z,101548.44
2023-04-03T09:44:53.726Z,101544.41
2023-04-03T09:49:08.898Z,101538.63
2023-04-03T09:53:28.987Z,101552.72
2023-04-03T09:57:34.221Z,101553.28
2023-04-03T10:01:39.223Z,101535.13
2023-04-03T10:05:43.262Z,101547.03
2023-04-03T10:09:56.582Z,101544.91
2023-04-03T10:14:06.240Z,101549.88
2023-04-03T10:18:35.112Z,101554.66
2023-04-03T10:22:46.663Z,101548.97
2023-04-03T10:27:11.746Z,101541.94
2023-04-03T10:31:28.663Z,101536.66
2023-04-03T10:35:54.409Z,101548.75
2023-04-03T10:40:06.086Z,101537.38
2023-04-03T10:44:28.069Z,101528.03
2023-04-03T10:48:50.138Z,101534.81
2023-04-03T10:53:13.852Z,101539.34
2023-04-03T10:57:16.034Z,101529.38
2023-04-03T11:01:23.543Z,101533.81
2023-04-03T11:05:37.943Z,101545.31
2023-04-03T11:09:44.776Z,101533.28
2023-04-03T11:13:55.931Z,101525.59
2023-04-03T11:18:46.064Z,101509.94
2023-04-03T11:23:04.129Z,101531.91
2023-04-03T11:27:09.454Z,101532.44
2023-04-03T11:31:31.066Z,101528.81
2023-04-03T11:35:34.969Z,101529.25
2023-04-03T11:39:39.584Z,101518.06
2023-04-03T11:43:56.410Z,101505.50
2023-04-03T11:48:09.949Z,101511.75
2023-04-03T11:52:56.668Z,101517.03
2023-04-03T11:56:58.691Z,101518.06
2023-04-03T12:01:07.020Z,101515.25
2023-04-03T12:05:32.782Z,101497.56
2023-04-03T12:09:34.976Z,101500.00
2023-04-03T12:14:05.985Z,101489.50
2023-04-03T12:18:53.071Z,101494.03
2023-04-03T12:23:09.667Z,101499.53
2023-04-03T12:27:24.347Z,101495.41
2023-04-03T12:31:42.110Z,101511.94
2023-04-03T12:35:58.497Z,101503.94
2023-04-03T12:40:20.540Z,101501.34
2023-04-03T12:44:41.625Z,101492.56
2023-04-03T12:48:46.583Z,101504.00
2023-04-03T12:52:56.295Z,101501.72
2023-04-03T12:57:17.819Z,101497.25
2023-04-03T13:01:24.472Z,101502.88
2023-04-03T13:05:27.564Z,101514.94
2023-04-03T13:09:33.534Z,101501.41
2023-04-03T13:13:36.745Z,101493.38
2023-04-03T13:17:43.612Z,101499.88
2023-04-03T13:21:46.458Z,101501.91
2023-04-03T13:25:50.559Z,101500.13
2023-04-03T13:30:00.288Z,101491.34
2023-04-03T13:34:17.125Z,101492.09
2023-04-03T13:38:19.208Z,101486.06
2023-04-03T13:42:27.836Z,101490.91
2023-04-03T13:46:30.094Z,101498.53
2023-04-03T13:50:32.170Z,101484.13
2023-04-03T13:54:39.640Z,101493.56
2023-04-03T13:58:55.856Z,101495.91
2023-04-03T14:02:58.573Z,101498.72
2023-04-03T14:07:00.730Z,101494.47
2023-04-03T14:11:03.219Z,101489.44
2023-04-03T14:15:16.702Z,101493.66
2023-04-03T14:19:25.705Z,101480.28
2023-04-03T14:23:27.771Z,101499.03
2023-04-03T14:27:35.281Z,101497.63
2023-04-03T14:31:37.411Z,101493.03
2023-04-03T14:35:39.616Z,101488.50
2023-04-03T14:39:43.063Z,101490.88
2023-04-03T14:43:46.701Z,101485.34
2023-04-03T14:47:51.512Z,101496.63
2023-04-03T14:51:53.745Z,101495.66
2023-04-03T14:55:56.080Z,101500.22
2023-04-03T14:59:58.859Z,101495.41
2023-04-03T15:04:01.126Z,101498.97
2023-04-03T15:08:03.190Z,101495.16
2023-04-03T15:12:05.383Z,101502.22
2023-04-03T15:16:16.111Z,101501.44
2023-04-03T15:20:21.882Z,101499.91
2023-04-03T15:24:23.975Z,101494.81
2023-04-03T15:28:34.645Z,101504.31
2023-04-03T15:32:37.157Z,101497.00
2023-04-03T15:36:39.278Z,101497.06
2023-04-03T15:40:41.724Z,101501.66
2023-04-03T15:44:43.768Z,101495.59
2023-04-03T15:48:45.963Z,101496.63
2023-04-03T15:52:48.177Z,101503.44
2023-04-03T15:56:50.573Z,101490.69
2023-04-03T16:00:52.841Z,101504.69
2023-04-03T16:04:56.368Z,101503.94
2023-04-03T16:08:59.072Z,101500.47
2023-04-03T16:13:01.070Z,101498.81
2023-04-03T16:17:03.349Z,101499.69
2023-04-03T16:21:08.931Z,101498.00
2023-04-03T16:25:12.312Z,101497.19
2023-04-03T16:29:14.718Z,101503.41
2023-04-03T16:33:17.767Z,101495.69
2023-04-03T16:37:20.163Z,101506.09
2023-04-03T16:41:22.670Z,101503.50
2023-04-03T16:45:24.894Z,101508.72
2023-04-03T16:49:31.218Z,101516.59
2023-04-03T16:53:33.474Z,101510.69
2023-04-03T16:57:35.602Z,101513.38
2023-04-03T17:01:37.859Z,101521.97
2023-04-03T17:05:40.280Z,101527.31
2023-04-03T17:09:42.616Z,101528.31
2023-04-03T17:13:44.933Z,101527.41
2023-04-03T17:17:49.049Z,101530.94
2023-04-03T17:21:52.521Z,101530.94
2023-04-03T17:25:55.920Z,101528.38
2023-04-03T17:29:58.656Z,101543.94
2023-04-03T17:34:01.846Z,101545.81
2023-04-03T17:38:04.811Z,101546.63
2023-04-03T17:42:06.992Z,101544.09
2023-04-03T17:46:10.814Z,101545.03
2023-04-03T17:50:16.045Z,101549.34
2023-04-03T17:54:18.456Z,101552.88
2023-04-03T17:58:20.703Z,101559.78
2023-04-03T18:02:23.195Z,101559.03
2023-04-03T18:06:32.486Z,101561.59
2023-04-03T18:10:37.415Z,101558.94
2023-04-03T18:14:41.038Z,101565.94
2023-04-03T18:18:43.619Z,101562.41
2023-04-03T18:22:46.023Z,101560.81
2023-04-03T18:26:53.704Z,101569.53
2023-04-03T18:30:56.025Z,101566.97
2023-04-03T18:35:00.557Z,101573.84
2023-04-03T18:39:03.789Z,101575.66
2023-04-03T18:43:06.562Z,101571.28
2023-04-03T18:47:09.149Z,101571.38
2023-04-03T18:51:12.370Z,101575.75
2023-04-03T18:55:16.300Z,101572.16
2023-04-03T18:59:18.742Z,101570.47
2023-04-03T19:03:21.390Z,101572.97
2023-04-03T19:07:23.793Z,101570.38
2023-04-03T19:11:29.573Z,101573.13
2023-04-03T19:15:35.153Z,101573.28
2023-04-03T19:19:37.412Z,101562.00
2023-04-03T19:23:42.756Z,101582.81
2023-04-03T19:27:45.285Z,101577.69
2023-04-03T19:31:47.621Z,101577.78
2023-04-03T19:35:49.741Z,101582.09
2023-04-03T19:39:51.802Z,101586.53
2023-04-03T19:43:56.003Z,101582.16
2023-04-03T19:48:01.428Z,101583.97
2023-04-03T19:52:04.847Z,101585.63
2023-04-03T19:56:07.432Z,101588.22
2023-04-03T20:00:10.340Z,101589.13
2023-04-03T20:04:16.016Z,101598.69
2023-04-03T20:08:18.957Z,101591.72
2023-04-03T20:12:21.174Z,101588.28
2023-04-03T20:16:25.418Z,101584.94
2023-04-03T20:20:28.653Z,101584.91
2023-04-03T20:24:31.396Z,101584.97
2023-04-03T20:28:34.125Z,101580.69
2023-04-03T20:32:36.141Z,101580.63
2023-04-03T20:36:38.773Z,101578.91
2023-04-03T20:40:40.932Z,101592.78
2023-04-03T20:44:45.946Z,101590.22
2023-04-03T20:48:48.198Z,101593.72
2023-04-03T20:52:50.314Z,101589.47
2023-04-03T20:56:52.869Z,101580.81
2023-04-03T21:00:56.648Z,101592.06
2023-04-03T21:04:58.980Z,101596.38
2023-04-03T21:09:39.030Z,101600.72
2023-04-03T21:14:19.338Z,101593.00
2023-04-03T21:18:57.301Z,101596.50
2023-04-03T21:22:59.360Z,101590.44
2023-04-03T21:27:03.005Z,101589.63
2023-04-03T21:31:06.437Z,101596.56
2023-04-03T21:35:09.507Z,101597.44
2023-04-03T21:39:12.251Z,101594.00
2023-04-03T21:43:14.469Z,101594.06
2023-04-03T21:47:16.852Z,101595.81
2023-04-03T21:51:18.880Z,101595.00
2023-04-03T21:55:20.916Z,101595.78
2023-04-03T21:59:23.255Z,101598.44
2023-04-03T22:03:25.616Z,101601.00
2023-04-03T22:07:27.799Z,101598.44
2023-04-03T22:11:30.378Z,101595.03
2023-04-03T22:15:36.834Z,101588.13
2023-04-03T22:19:39.073Z,101601.09
2023-04-03T22:23:41.262Z,101598.50
2023-04-03T22:27:43.233Z,101596.72
2023-04-03T22:31:45.357Z,101600.19
2023-04-03T22:35:48.717Z,101589.91
2023-04-03T22:39:50.958Z,101587.34
2023-04-03T22:43:52.948Z,101587.34
2023-04-03T22:47:58.692Z,101581.31
2023-04-03T22:52:00.982Z,101582.19
2023-04-03T22:56:05.684Z,101574.44
2023-04-03T23:00:08.424Z,101586.56
2023-04-03T23:04:10.520Z,101582.19
2023-04-03T23:08:12.648Z,101583.09
2023-04-03T23:12:14.479Z,101577.94
2023-04-03T23:16:17.351Z,101578.81
2023-04-03T23:20:19.599Z,101575.38
2023-04-03T23:24:22.688Z,101578.84
2023-04-03T23:28:25.428Z,101575.41
2023-04-03T23:32:27.515Z,101574.56
2023-04-03T23:36:29.552Z,101569.38
2023-04-03T23:40:31.650Z,101561.63
2023-04-03T23:44:33.377Z,101562.50
2023-04-03T23:48:35.485Z,101561.66
2023-04-03T23:52:37.534Z,101561.63
2023-04-03T23:56:39.555Z,101559.06
